createdAt,value
2023-01-15T00:01:36.941Z,95223.91
2023-01-15T00:04:08.360Z,95155.47
2023-01-15T00:06:38.588Z,95231.75
2023-01-15T00:09:08.239Z,95221.88
2023-01-15T00:11:37.894Z,95211.75
2023-01-15T00:14:06.227Z,95218.75
2023-01-15T00:16:40.803Z,95219.97
2023-01-15T00:19:14.589Z,95194.34
2023-01-15T00:21:42.520Z,95154.44
2023-01-15T00:24:27.928Z,95205.13
2023-01-15T00:27:14.774Z,95197.56
2023-01-15T00:29:44.801Z,95191.25
2023-01-15T00:32:15.232Z,95202.53
2023-01-15T00:34:49.668Z,95186.59
2023-01-15T00:37:17.679Z,95174.94
2023-01-15T00:39:45.504Z,95161.88
2023-01-15T00:42:17.038Z,95176.34
2023-01-15T00:44:47.095Z,95156.91
2023-01-15T00:47:15.329Z,95180.69
2023-01-15T00:49:43.595Z,95185.50
2023-01-15T00:52:12.434Z,95191.84
2023-01-15T00:54:44.380Z,95121.78
2023-01-15T00:57:12.437Z,95149.28
2023-01-15T00:59:41.864Z,95149.81
2023-01-15T01:02:09.755Z,95147.22
2023-01-15T01:04:37.640Z,95135.72
2023-01-15T01:07:06.014Z,95149.88
2023-01-15T01:09:34.010Z,95124.06
2023-01-15T01:12:04.860Z,95100.69
2023-01-15T01:14:38.399Z,95135.81
2023-01-15T01:17:09.201Z,95128.94
2023-01-15T01:19:39.904Z,95141.69
2023-01-15T01:22:07.974Z,95119.59
2023-01-15T01:24:36.969Z,95129.13
2023-01-15T01:27:04.968Z,95111.84
2023-01-15T01:29:35.464Z,95131.50
2023-01-15T01:32:07.516Z,95134.03
2023-01-15T01:34:40.734Z,95133.16
2023-01-15T01:37:13.145Z,95131.50
2023-01-15T01:39:40.923Z,95126.81
2023-01-15T01:42:13.422Z,95120.59
2023-01-15T01:45:03.049Z,95121.13
2023-01-15T01:47:38.033Z,95117.78
2023-01-15T01:50:13.551Z,95111.53
2023-01-15T01:52:44.801Z,95110.53
2023-01-15T01:55:13.998Z,95111.31
2023-01-15T01:57:43.433Z,95089.38
2023-01-15T02:00:14.206Z,95100.34
2023-01-15T02:02:48.167Z,95096.41
2023-01-15T02:05:33.908Z,95099.47
2023-01-15T02:08:06.572Z,95101.91
2023-01-15T02:10:34.889Z,95090.66
2023-01-15T02:13:09.251Z,95096.59
2023-01-15T02:15:45.429Z,95093.75
2023-01-15T02:18:19.686Z,95072.09
2023-01-15T02:20:50.568Z,95058.78
2023-01-15T02:24:14.878Z,95088.25
2023-01-15T02:27:02.610Z,95064.75
2023-01-15T02:29:38.883Z,95073.88
2023-01-15T02:32:10.682Z,95062.00
2023-01-15T02:34:44.991Z,95069.94
2023-01-15T02:37:16.205Z,95069.72
2023-01-15T02:39:48.987Z,95081.00
2023-01-15T02:42:19.209Z,95092.88
2023-01-15T02:44:55.404Z,95059.34
2023-01-15T02:47:26.559Z,95081.31
2023-01-15T02:49:57.066Z,95060.53
2023-01-15T02:52:31.055Z,95034.00
2023-01-15T02:55:03.833Z,95068.25
2023-01-15T02:57:35.413Z,95072.19
2023-01-15T03:00:10.362Z,95072.06
2023-01-15T03:02:41.635Z,95063.06
2023-01-15T03:05:14.707Z,95059.75
2023-01-15T03:07:46.475Z,95032.44
2023-01-15T03:10:14.882Z,95072.09
2023-01-15T03:13:21.936Z,95067.19
2023-01-15T03:16:12.052Z,95059.34
2023-01-15T03:18:44.713Z,95055.66
2023-01-15T03:21:34.732Z,95053.34
2023-01-15T03:24:03.413Z,95039.88
2023-01-15T03:26:40.314Z,95053.25
2023-01-15T03:29:11.097Z,95047.53
2023-01-15T03:31:39.285Z,95044.41
2023-01-15T03:34:19.119Z,95025.66
2023-01-15T03:36:49.664Z,95038.00
2023-01-15T03:39:17.643Z,95022.31
2023-01-15T03:41:59.579Z,95032.81
2023-01-15T03:44:34.460Z,95048.16
2023-01-15T03:47:09.575Z,95033.41
2023-01-15T03:49:44.268Z,95037.09
2023-01-15T03:52:17.829Z,95026.13
2023-01-15T03:54:52.860Z,95042.28
2023-01-15T03:57:27.933Z,95029.75
2023-01-15T03:59:59.884Z,95033.72
2023-01-15T04:02:32.680Z,95029.25
2023-01-15T04:05:02.660Z,94971.34
2023-01-15T04:07:33.917Z,94978.28
2023-01-15T04:10:19.753Z,95000.78
2023-01-15T04:12:53.548Z,95012.84
2023-01-15T04:15:26.209Z,95014.22
2023-01-15T04:17:56.145Z,95003.41
2023-01-15T04:20:24.193Z,95001.72
2023-01-15T04:22:54.364Z,95009.06
2023-01-15T04:25:25.239Z,95019.03
2023-01-15T04:27:56.448Z,95010.63
2023-01-15T04:30:29.663Z,94983.19
2023-01-15T04:33:01.008Z,95010.97
2023-01-15T04:35:31.946Z,94985.78
2023-01-15T04:38:05.205Z,95005.16
2023-01-15T04:40:50.628Z,94969.75
2023-01-15T04:43:35.960Z,95002.16
2023-01-15T04:46:07.311Z,95016.38
2023-01-15T04:48:35.709Z,95020.09
2023-01-15T04:51:07.213Z,95018.41
2023-01-15T04:53:35.547Z,94998.28
2023-01-15T04:56:04.286Z,94962.91
2023-01-15T04:58:32.454Z,95016.25
2023-01-15T05:01:03.300Z,95035.22
2023-01-15T05:03:32.684Z,95081.50
2023-01-15T05:06:02.786Z,95077.88
2023-01-15T05:08:31.096Z,95111.97
2023-01-15T05:11:03.938Z,95077.63
2023-01-15T05:13:33.373Z,95115.84
2023-01-15T05:16:09.917Z,95106.19
2023-01-15T05:18:39.914Z,95085.47
2023-01-15T05:21:08.097Z,95097.47
2023-01-15T05:23:38.148Z,95101.03
2023-01-15T05:26:08.332Z,95092.59
2023-01-15T05:28:36.936Z,95061.75
2023-01-15T05:31:09.766Z,95120.94
2023-01-15T05:33:42.220Z,95123.69
2023-01-15T05:36:12.813Z,95120.78
2023-01-15T05:38:41.154Z,95120.44
2023-01-15T05:41:24.978Z,95083.53
2023-01-15T05:43:53.397Z,95131.47
2023-01-15T05:46:23.527Z,95133.28
2023-01-15T05:48:52.802Z,95140.84
2023-01-15T05:51:27.984Z,95133.81
2023-01-15T05:53:58.629Z,95135.72
2023-01-15T05:56:26.674Z,95144.03
2023-01-15T05:59:02.877Z,95153.38
2023-01-15T06:01:33.625Z,95152.69
2023-01-15T06:04:08.556Z,95127.97
2023-01-15T06:06:39.908Z,95148.72
2023-01-15T06:09:08.197Z,95160.75
2023-01-15T06:11:41.657Z,95154.22
2023-01-15T06:14:10.024Z,95126.13
2023-01-15T06:16:41.268Z,95178.25
2023-01-15T06:19:14.496Z,95174.69
2023-01-15T06:21:43.261Z,95189.63
2023-01-15T06:24:11.604Z,95131.97
2023-01-15T06:26:42.633Z,95188.66
2023-01-15T06:29:10.458Z,95199.78
2023-01-15T06:31:38.646Z,95222.34
2023-01-15T06:34:13.032Z,95234.91
2023-01-15T06:36:40.844Z,95233.22
2023-01-15T06:39:08.876Z,95228.88
2023-01-15T06:41:54.469Z,95226.16
2023-01-15T06:44:39.883Z,95238.63
2023-01-15T06:47:25.018Z,95236.28
2023-01-15T06:49:55.941Z,95237.31
2023-01-15T06:52:26.432Z,95224.44
2023-01-15T06:54:55.657Z,95237.56
2023-01-15T06:57:26.329Z,95255.91
2023-01-15T06:59:54.197Z,95257.81
2023-01-15T07:02:27.840Z,95276.91
2023-01-15T07:04:59.979Z,95281.63
2023-01-15T07:07:29.551Z,95270.81
2023-01-15T07:10:01.302Z,95292.91
2023-01-15T07:12:30.457Z,95272.63
2023-01-15T07:15:00.429Z,95267.13
2023-01-15T07:17:28.326Z,95293.06
2023-01-15T07:20:02.958Z,95274.94
2023-01-15T07:22:30.737Z,95275.28
2023-01-15T07:25:03.998Z,95302.41
2023-01-15T07:27:32.180Z,95306.69
2023-01-15T07:30:12.964Z,95248.84
2023-01-15T07:32:46.167Z,95324.47
2023-01-15T07:35:16.902Z,95328.44
2023-01-15T07:37:45.109Z,95329.47
2023-01-15T07:40:17.098Z,95326.38
2023-01-15T07:43:02.378Z,95306.66
2023-01-15T07:46:03.344Z,95330.06
2023-01-15T07:48:49.027Z,95331.09
2023-01-15T07:51:18.292Z,95335.59
2023-01-15T07:53:54.336Z,95346.34
2023-01-15T07:56:26.145Z,95357.06
2023-01-15T07:58:54.471Z,95354.75
2023-01-15T08:01:22.277Z,95345.78
2023-01-15T08:03:52.598Z,95352.88
2023-01-15T08:06:21.830Z,95368.13
2023-01-15T08:08:49.788Z,95374.97
2023-01-15T08:11:37.647Z,95358.88
2023-01-15T08:14:23.085Z,95369.69
2023-01-15T08:16:56.324Z,95346.22
2023-01-15T08:19:25.198Z,95379.31
2023-01-15T08:21:56.905Z,95374.91
2023-01-15T08:24:28.280Z,95376.47
2023-01-15T08:27:01.464Z,95293.41
2023-01-15T08:29:32.160Z,95368.75
2023-01-15T08:32:03.399Z,95386.66
2023-01-15T08:34:31.267Z,95397.09
2023-01-15T08:37:01.727Z,95412.03
2023-01-15T08:39:29.634Z,95425.66
2023-01-15T08:41:57.624Z,95413.81
2023-01-15T08:44:25.877Z,95394.13
2023-01-15T08:46:59.079Z,95427.56
2023-01-15T08:49:26.935Z,95420.47
2023-01-15T08:51:54.825Z,95434.91
2023-01-15T08:54:28.049Z,95457.03
2023-01-15T08:57:02.531Z,95358.19
2023-01-15T08:59:30.870Z,95442.31
2023-01-15T09:02:01.919Z,95372.38
2023-01-15T09:04:29.993Z,95437.59
2023-01-15T09:07:00.732Z,95448.28
2023-01-15T09:09:31.125Z,95453.56
2023-01-15T09:12:02.804Z,95456.50
2023-01-15T09:14:57.835Z,95454.72
2023-01-15T09:17:21.292Z,95461.56
2023-01-15T09:19:52.107Z,95478.34
2023-01-15T09:22:19.964Z,95482.59
2023-01-15T09:24:54.284Z,95461.53
2023-01-15T09:27:24.981Z,95516.28
2023-01-15T09:29:56.001Z,95523.09
2023-01-15T09:32:24.037Z,95521.50
2023-01-15T09:34:52.084Z,95522.06
2023-01-15T09:37:20.033Z,95521.47
2023-01-15T09:39:49.333Z,95471.78
2023-01-15T09:42:29.244Z,95517.81
2023-01-15T09:45:20.307Z,95524.44
2023-01-15T09:48:01.045Z,95532.81
2023-01-15T09:50:36.731Z,95528.94
2023-01-15T09:53:21.929Z,95550.13
2023-01-15T09:55:52.279Z,95537.97
2023-01-15T09:58:25.599Z,95554.34
2023-01-15T10:00:55.378Z,95512.69
2023-01-15T10:03:33.457Z,95567.41
2023-01-15T10:06:08.856Z,95558.56
2023-01-15T10:08:43.691Z,95551.63
2023-01-15T10:11:59.501Z,95565.53
2023-01-15T10:14:39.626Z,95562.97
2023-01-15T10:17:19.594Z,95577.59
2023-01-15T10:19:47.469Z,95584.59
2023-01-15T10:22:21.923Z,95591.34
2023-01-15T10:24:59.306Z,95590.22
2023-01-15T10:27:33.467Z,95601.50
2023-01-15T10:30:07.694Z,95607.22
2023-01-15T10:33:01.037Z,95503.06
2023-01-15T10:35:36.053Z,95614.69
2023-01-15T10:38:14.018Z,95625.25
2023-01-15T10:40:52.243Z,95617.38
2023-01-15T10:43:26.594Z,95636.56
2023-01-15T10:45:57.969Z,95637.91
2023-01-15T10:48:43.745Z,95631.16
2023-01-15T10:51:17.428Z,95636.91
2023-01-15T10:53:47.538Z,95591.50
2023-01-15T10:56:19.670Z,95646.00
2023-01-15T10:58:58.939Z,95629.38
2023-01-15T11:01:29.938Z,95630.78
2023-01-15T11:04:00.338Z,95608.47
2023-01-15T11:06:35.872Z,95655.78
2023-01-15T11:09:10.824Z,95649.97
2023-01-15T11:12:00.143Z,95654.34
2023-01-15T11:14:55.189Z,95663.53
2023-01-15T11:17:43.503Z,95673.97
2023-01-15T11:20:23.079Z,95683.03
2023-01-15T11:22:54.138Z,95652.00
2023-01-15T11:25:33.708Z,95665.09
2023-01-15T11:28:06.375Z,95677.41
2023-01-15T11:30:38.345Z,95678.28
2023-01-15T11:33:11.233Z,95673.91
2023-01-15T11:35:47.284Z,95680.53
2023-01-15T11:38:16.842Z,95679.75
2023-01-15T11:40:53.709Z,95681.47
2023-01-15T11:43:40.472Z,95672.72
2023-01-15T11:46:41.674Z,95613.59
2023-01-15T11:49:28.569Z,95672.78
2023-01-15T11:51:58.105Z,95666.97
2023-01-15T11:54:27.419Z,95660.88
2023-01-15T11:56:58.342Z,95645.78
2023-01-15T11:59:28.062Z,95682.16
2023-01-15T12:02:00.420Z,95667.28
2023-01-15T12:04:36.759Z,95659.66
2023-01-15T12:07:06.814Z,95676.66
2023-01-15T12:10:03.414Z,95661.28
2023-01-15T12:12:43.667Z,95668.94
2023-01-15T12:15:27.639Z,95655.06
2023-01-15T12:18:17.956Z,95673.97
2023-01-15T12:20:59.363Z,95661.84
2023-01-15T12:23:40.351Z,95657.13
2023-01-15T12:26:17.574Z,95603.53
2023-01-15T12:28:53.895Z,95551.63
2023-01-15T12:31:25.655Z,95639.78
2023-01-15T12:34:10.446Z,95633.88
2023-01-15T12:36:41.963Z,95642.81
2023-01-15T12:39:17.274Z,95644.97
2023-01-15T12:42:05.064Z,95644.72
2023-01-15T12:45:09.352Z,95643.19
2023-01-15T12:47:42.455Z,95638.56
2023-01-15T12:50:37.105Z,95637.28
2023-01-15T12:53:11.004Z,95650.34
2023-01-15T12:55:45.842Z,95599.75
2023-01-15T12:58:22.111Z,95654.31
2023-01-15T13:00:51.271Z,95600.66
2023-01-15T13:03:25.668Z,95675.66
2023-01-15T13:05:57.840Z,95675.91
2023-01-15T13:08:39.336Z,95659.34
2023-01-15T13:11:08.473Z,95675.75
2023-01-15T13:13:37.787Z,95757.41
2023-01-15T13:16:22.212Z,95678.84
2023-01-15T13:18:56.385Z,95693.00
2023-01-15T13:21:28.992Z,95687.44
2023-01-15T13:24:23.742Z,95688.94
2023-01-15T13:27:02.113Z,95684.66
2023-01-15T13:29:42.152Z,95653.44
2023-01-15T13:32:13.542Z,95671.56
2023-01-15T13:34:44.752Z,95690.16
2023-01-15T13:37:26.517Z,95697.97
2023-01-15T13:40:03.615Z,95704.47
2023-01-15T13:42:37.754Z,95698.56
2023-01-15T13:45:09.792Z,95686.16
2023-01-15T13:47:39.342Z,95636.75
2023-01-15T13:50:17.921Z,95697.63
2023-01-15T13:52:47.631Z,95692.56
2023-01-15T13:55:22.656Z,95711.94
2023-01-15T13:57:50.597Z,95708.34
2023-01-15T14:00:31.315Z,95699.25
2023-01-15T14:03:00.980Z,95704.44
2023-01-15T14:05:35.222Z,95711.41
2023-01-15T14:08:17.471Z,95706.34
2023-01-15T14:10:45.601Z,95701.78
2023-01-15T14:13:47.185Z,95695.81
2023-01-15T14:16:25.245Z,95704.31
2023-01-15T14:19:24.688Z,95699.31
2023-01-15T14:21:58.769Z,95715.25
2023-01-15T14:24:57.319Z,95715.09
2023-01-15T14:27:41.864Z,95691.31
2023-01-15T14:30:34.614Z,95696.81
2023-01-15T14:33:10.903Z,95707.50
2023-01-15T14:35:44.923Z,95722.72
2023-01-15T14:38:16.700Z,95710.66
2023-01-15T14:40:55.561Z,95693.19
2023-01-15T14:43:26.095Z,95705.19
2023-01-15T14:45:55.550Z,95696.34
2023-01-15T14:48:38.037Z,95697.13
2023-01-15T14:51:10.727Z,95691.84
2023-01-15T14:53:43.095Z,95707.16
2023-01-15T14:56:22.576Z,95710.84
2023-01-15T14:58:54.599Z,95675.63
2023-01-15T15:01:37.765Z,95712.22
2023-01-15T15:04:23.275Z,95707.63
2023-01-15T15:06:55.445Z,95718.13
2023-01-15T15:09:31.261Z,95726.41
2023-01-15T15:12:22.623Z,95727.84
2023-01-15T15:14:58.114Z,95731.28
2023-01-15T15:17:41.732Z,95742.91
2023-01-15T15:20:23.501Z,95754.09
2023-01-15T15:22:56.723Z,95760.25
2023-01-15T15:25:39.615Z,95746.06
2023-01-15T15:28:12.391Z,95751.63
2023-01-15T15:30:45.065Z,95744.59
2023-01-15T15:33:18.267Z,95744.22
2023-01-15T15:35:53.382Z,95734.56
2023-01-15T15:38:23.517Z,95722.47
2023-01-15T15:40:53.400Z,95726.34
2023-01-15T15:43:47.742Z,95734.66
2023-01-15T15:46:56.104Z,95716.56
2023-01-15T15:49:24.257Z,95651.31
2023-01-15T15:51:53.916Z,95712.00
2023-01-15T15:54:26.809Z,95699.50
2023-01-15T15:57:00.758Z,95700.59
2023-01-15T15:59:32.580Z,95702.25
2023-01-15T16:02:08.708Z,95677.41
2023-01-15T16:04:40.816Z,95699.25
2023-01-15T16:07:26.872Z,95711.22
2023-01-15T16:09:57.927Z,95684.75
2023-01-15T16:12:28.829Z,95706.13
2023-01-15T16:15:02.014Z,95677.75
2023-01-15T16:17:33.104Z,95689.56
2023-01-15T16:20:03.342Z,95715.50
2023-01-15T16:22:31.224Z,95714.63
2023-01-15T16:25:02.467Z,95715.78
2023-01-15T16:27:36.634Z,95579.28
2023-01-15T16:30:09.819Z,95417.59
2023-01-15T16:32:43.784Z,95700.78
2023-01-15T16:35:18.453Z,95707.28
2023-01-15T16:37:50.478Z,95703.56
2023-01-15T16:40:25.878Z,95699.91
2023-01-15T16:43:09.610Z,95702.69
2023-01-15T16:45:44.723Z,95704.16
2023-01-15T16:48:31.576Z,95702.75
2023-01-15T16:50:59.705Z,95712.19
2023-01-15T16:53:34.503Z,95580.38
2023-01-15T16:56:02.351Z,95714.25
2023-01-15T16:58:39.638Z,95701.81
2023-01-15T17:01:42.129Z,95701.81
2023-01-15T17:04:24.960Z,95700.97
2023-01-15T17:06:57.446Z,95703.69
2023-01-15T17:09:27.102Z,95695.59
2023-01-15T17:11:55.638Z,95685.22
2023-01-15T17:14:31.415Z,95221.00
2023-01-15T17:17:18.790Z,95677.03
2023-01-15T17:19:46.756Z,95698.06
2023-01-15T17:22:28.901Z,95698.59
2023-01-15T17:25:03.065Z,95679.31
2023-01-15T17:27:36.030Z,95669.78
2023-01-15T17:30:06.253Z,95684.91
2023-01-15T17:32:40.312Z,95691.56
2023-01-15T17:35:13.009Z,95698.91
2023-01-15T17:37:41.002Z,95700.16
2023-01-15T17:40:10.306Z,95681.41
2023-01-15T17:42:42.542Z,95698.81
2023-01-15T17:45:17.168Z,95679.72
2023-01-15T17:47:46.916Z,95682.38
2023-01-15T17:50:22.030Z,95679.66
2023-01-15T17:52:56.800Z,95677.66
2023-01-15T17:55:42.470Z,95641.63
2023-01-15T17:58:30.136Z,95672.34
2023-01-15T18:01:19.414Z,95668.53
2023-01-15T18:04:12.486Z,95674.41
2023-01-15T18:06:41.636Z,95685.69
2023-01-15T18:09:11.417Z,95639.66
2023-01-15T18:11:40.640Z,95673.22
2023-01-15T18:14:11.027Z,95666.25
2023-01-15T18:16:39.571Z,95676.63
2023-01-15T18:19:12.340Z,95678.81
2023-01-15T18:21:42.962Z,95644.66
2023-01-15T18:24:11.957Z,95668.06
2023-01-15T18:26:42.090Z,95676.06
2023-01-15T18:29:11.319Z,95646.78
2023-01-15T18:31:40.023Z,95672.81
2023-01-15T18:34:09.382Z,95620.97
2023-01-15T18:36:42.928Z,95651.63
2023-01-15T18:39:13.183Z,95657.50
2023-01-15T18:41:59.374Z,95672.44
2023-01-15T18:44:45.366Z,95662.00
2023-01-15T18:47:18.023Z,95650.25
2023-01-15T18:49:55.003Z,95673.91
2023-01-15T18:52:43.007Z,95667.13
2023-01-15T18:55:12.396Z,95672.75
2023-01-15T18:57:40.420Z,95649.38
2023-01-15T19:00:10.329Z,95661.56
2023-01-15T19:02:41.955Z,95666.88
2023-01-15T19:05:15.268Z,95669.50
2023-01-15T19:07:45.239Z,95664.94
2023-01-15T19:10:14.424Z,95657.50
2023-01-15T19:12:43.867Z,95652.38
2023-01-15T19:15:31.529Z,95634.78
2023-01-15T19:18:17.093Z,95629.59
2023-01-15T19:20:51.651Z,95604.84
2023-01-15T19:23:23.701Z,95614.00
2023-01-15T19:25:51.512Z,95559.31
2023-01-15T19:28:21.736Z,95569.88
2023-01-15T19:31:07.509Z,95589.88
2023-01-15T19:33:35.728Z,95585.47
2023-01-15T19:36:06.079Z,95559.81
2023-01-15T19:38:39.898Z,95571.59
2023-01-15T19:41:27.720Z,95575.66
2023-01-15T19:44:13.042Z,95571.53
2023-01-15T19:47:01.202Z,95572.94
2023-01-15T19:49:51.943Z,95573.13
2023-01-15T19:52:39.449Z,95575.25
2023-01-15T19:55:12.470Z,95560.50
2023-01-15T19:57:40.532Z,95543.84
2023-01-15T20:00:10.300Z,95562.91
2023-01-15T20:02:38.603Z,95556.09
2023-01-15T20:05:14.192Z,95538.38
2023-01-15T20:07:47.451Z,95534.00
2023-01-15T20:10:16.941Z,95529.84
2023-01-15T20:13:02.616Z,95524.88
2023-01-15T20:15:31.523Z,95456.91
2023-01-15T20:17:59.826Z,95511.03
2023-01-15T20:20:30.321Z,95513.00
2023-01-15T20:23:02.833Z,95523.94
2023-01-15T20:25:33.191Z,95491.13
2023-01-15T20:28:02.016Z,95465.56
2023-01-15T20:30:30.197Z,95497.03
2023-01-15T20:32:58.455Z,95495.31
2023-01-15T20:35:27.797Z,95486.75
2023-01-15T20:37:57.918Z,95492.91
2023-01-15T20:40:30.198Z,95494.63
2023-01-15T20:43:15.454Z,95488.03
2023-01-15T20:45:43.333Z,95484.22
2023-01-15T20:48:28.682Z,95486.13
2023-01-15T20:51:02.558Z,95467.28
2023-01-15T20:53:34.685Z,95484.13
2023-01-15T20:56:04.751Z,95468.56
2023-01-15T20:58:33.006Z,95473.09
2023-01-15T21:01:04.882Z,95473.72
2023-01-15T21:03:35.659Z,95426.81
2023-01-15T21:06:05.196Z,95433.06
2023-01-15T21:08:36.288Z,95455.56
2023-01-15T21:11:23.218Z,95340.00
2023-01-15T21:13:53.478Z,95423.25
2023-01-15T21:16:29.422Z,95445.78
2023-01-15T21:19:04.507Z,95441.31
2023-01-15T21:21:35.332Z,95424.00
2023-01-15T21:24:05.576Z,95400.28
2023-01-15T21:26:36.428Z,95420.16
2023-01-15T21:29:04.721Z,95419.16
2023-01-15T21:31:34.648Z,95388.34
2023-01-15T21:34:07.070Z,95409.56
2023-01-15T21:36:36.256Z,95405.38
2023-01-15T21:39:05.963Z,95408.44
2023-01-15T21:42:00.583Z,95410.44
2023-01-15T21:44:35.881Z,95408.50
2023-01-15T21:47:08.048Z,95418.81
2023-01-15T21:49:36.008Z,95414.94
2023-01-15T21:52:06.854Z,95413.66
2023-01-15T21:54:38.681Z,95392.63
2023-01-15T21:57:10.762Z,95386.81
2023-01-15T21:59:41.268Z,95395.66
2023-01-15T22:02:15.190Z,95392.53
2023-01-15T22:04:43.565Z,95390.88
2023-01-15T22:07:17.619Z,95387.88
2023-01-15T22:09:51.078Z,95363.84
2023-01-15T22:12:20.444Z,95380.63
2023-01-15T22:14:55.089Z,95381.97
2023-01-15T22:17:22.881Z,95371.81
2023-01-15T22:19:56.394Z,95373.13
2023-01-15T22:22:30.718Z,95357.06
2023-01-15T22:25:02.585Z,95334.69
2023-01-15T22:27:34.617Z,95359.59
2023-01-15T22:30:06.381Z,95306.38
2023-01-15T22:32:34.160Z,95353.19
2023-01-15T22:35:02.096Z,95342.50
2023-01-15T22:37:30.030Z,95356.66
2023-01-15T22:39:59.692Z,95290.56
2023-01-15T22:42:28.550Z,95340.94
2023-01-15T22:45:08.766Z,95329.59
2023-01-15T22:47:36.613Z,95295.31
2023-01-15T22:50:05.038Z,95336.91
2023-01-15T22:52:39.056Z,95319.59
2023-01-15T22:55:07.800Z,95320.69
2023-01-15T22:57:36.400Z,95323.00
2023-01-15T23:00:10.781Z,95322.84
2023-01-15T23:03:04.702Z,95321.69
2023-01-15T23:05:36.456Z,95294.78
2023-01-15T23:08:07.459Z,95309.38
2023-01-15T23:10:35.667Z,95304.72
2023-01-15T23:13:06.249Z,95286.44
2023-01-15T23:15:38.019Z,95287.94
2023-01-15T23:18:14.633Z,95290.06
2023-01-15T23:20:45.686Z,95284.84
2023-01-15T23:23:13.761Z,95271.59
2023-01-15T23:25:44.198Z,95286.38
2023-01-15T23:28:12.134Z,95263.56
2023-01-15T23:30:41.310Z,95280.19
2023-01-15T23:33:09.283Z,95276.88
2023-01-15T23:35:40.182Z,95275.19
2023-01-15T23:38:08.272Z,95275.38
2023-01-15T23:40:39.528Z,95270.41
2023-01-15T23:43:25.383Z,95272.81
2023-01-15T23:46:14.392Z,95260.72
2023-01-15T23:48:44.524Z,95263.28
2023-01-15T23:51:13.604Z,95260.06
2023-01-15T23:53:43.537Z,95257.84
2023-01-15T23:56:11.944Z,95215.59
2023-01-15T23:58:39.905Z,95227.25
